Time;durP1;ratioP1;P1;durP2;ratioP2;P2;SDS_P1;SDS_P2;PMS_P1;PMS_P2;Temp;Humidity;BMP_temperature;BMP_pressure;BME280_temperature;BME280_humidity;BME280_pressure;Samples;Min_cycle;Max_cycle;Signal;HPM_P1;HPM_P2
2022/06/17 00:01:01;;;;;;;3.55;1.60;;;19.50;46.40;;;;;;5058565;28;20025;-60
2022/06/17 00:03:29;;;;;;;1.95;1.30;;;19.40;46.60;;;;;;5068920;28;20037;-59
2022/06/17 00:05:56;;;;;;;3.17;1.45;;;19.40;46.70;;;;;;5060580;28;20025;-60
2022/06/17 00:08:28;;;;;;;2.95;1.52;;;19.30;46.60;;;;;;5063026;28;20017;-59
2022/06/17 00:10:54;;;;;;;1.83;1.60;;;19.20;47.10;;;;;;5060878;28;20084;-60
2022/06/17 00:13:22;;;;;;;1.77;1.45;;;19.20;47.00;;;;;;5070184;28;20061;-60
2022/06/17 00:15:48;;;;;;;2.67;1.50;;;19.10;47.00;;;;;;5062252;28;20376;-58
2022/06/17 00:18:15;;;;;;;3.25;1.40;;;19.10;47.40;;;;;;5061230;28;20040;-61
2022/06/17 00:20:41;;;;;;;4.85;1.60;;;19.00;47.50;;;;;;5064811;28;20052;-63
2022/06/17 00:23:21;;;;;;;1.58;1.30;;;19.00;47.50;;;;;;5063081;28;20013;-60
2022/06/17 00:25:48;;;;;;;2.65;1.70;;;18.90;48.00;;;;;;5057710;28;20029;-59
2022/06/17 00:28:21;;;;;;;4.47;1.90;;;18.90;47.80;;;;;;5062977;28;20033;-60
2022/06/17 00:30:47;;;;;;;5.80;1.88;;;18.90;48.10;;;;;;5059489;28;20029;-59
2022/06/17 00:33:15;;;;;;;4.80;1.40;;;18.80;47.70;;;;;;5064201;28;20037;-60
2022/06/17 00:35:50;;;;;;;2.30;1.73;;;18.80;48.00;;;;;;5059594;28;20041;-60
2022/06/17 00:38:23;;;;;;;2.70;1.35;;;18.80;49.20;;;;;;5061194;28;20047;-60
2022/06/17 00:40:49;;;;;;;1.75;1.30;;;18.80;48.30;;;;;;5077339;28;20021;-60
2022/06/17 00:43:36;;;;;;;1.92;1.23;;;18.80;48.10;;;;;;5059769;28;20071;-60
2022/06/17 00:46:27;;;;;;;3.90;1.48;;;18.70;48.50;;;;;;5061086;28;20025;-61
2022/06/17 00:49:19;;;;;;;3.20;1.40;;;18.70;48.50;;;;;;5056794;28;20025;-60
2022/06/17 00:52:04;;;;;;;4.20;2.90;;;18.70;47.80;;;;;;5055915;28;20076;-60
2022/06/17 00:54:40;;;;;;;3.13;1.80;;;18.70;48.50;;;;;;5063332;28;20064;-59
2022/06/17 00:57:25;;;;;;;3.10;1.70;;;18.70;48.60;;;;;;5057765;28;20040;-60
2022/06/17 01:00:35;;;;;;;3.45;1.67;;;18.70;48.90;;;;;;5047513;28;20052;-60
2022/06/17 01:03:15;;;;;;;2.22;1.73;;;18.70;48.90;;;;;;5062343;28;20036;-61
2022/06/17 01:05:54;;;;;;;3.30;1.80;;;18.70;48.60;;;;;;5057869;28;20096;-61
2022/06/17 01:11:12;;;;;;;2.58;1.65;;;18.60;48.60;;;;;;5064825;28;20036;-60
2022/06/17 01:13:38;;;;;;;4.25;1.63;;;18.60;48.50;;;;;;5068091;28;20033;-60
2022/06/17 01:16:05;;;;;;;2.70;1.77;;;18.60;48.70;;;;;;5067687;28;20025;-59
2022/06/17 01:18:34;;;;;;;2.22;1.80;;;18.50;48.80;;;;;;5065865;28;20045;-61
2022/06/17 01:21:05;;;;;;;2.72;1.70;;;18.50;48.90;;;;;;5065185;28;20032;-59
2022/06/17 01:23:31;;;;;;;3.30;1.67;;;18.50;48.80;;;;;;5067106;28;20029;-59
2022/06/17 01:25:57;;;;;;;1.95;1.48;;;18.40;48.50;;;;;;5065350;28;20070;-60
2022/06/17 01:28:23;;;;;;;1.67;1.40;;;18.30;48.80;;;;;;5065075;28;20060;-60
2022/06/17 01:30:52;;;;;;;3.08;1.60;;;18.30;49.10;;;;;;5061585;28;20491;-60
2022/06/17 01:33:24;;;;;;;3.60;1.65;;;18.30;49.20;;;;;;5066309;28;20041;-59
2022/06/17 01:36:00;;;;;;;1.80;1.50;;;18.30;49.30;;;;;;5066332;28;20041;-59
2022/06/17 01:38:28;;;;;;;3.03;1.48;;;18.20;49.50;;;;;;5064816;28;20029;-59
2022/06/17 01:40:56;;;;;;;1.58;1.40;;;18.20;49.20;;;;;;5070351;28;20021;-58
2022/06/17 01:43:25;;;;;;;3.22;1.70;;;18.20;49.10;;;;;;5065606;28;20068;-60
2022/06/17 01:45:59;;;;;;;1.88;1.40;;;18.20;49.40;;;;;;5065479;28;20075;-60
2022/06/17 01:48:28;;;;;;;2.10;1.40;;;18.20;49.30;;;;;;5068145;28;20022;-59
2022/06/17 01:50:57;;;;;;;1.65;1.40;;;18.10;49.10;;;;;;5065897;28;20056;-59
2022/06/17 01:53:28;;;;;;;3.10;1.60;;;18.10;49.30;;;;;;5062077;28;20033;-60
2022/06/17 01:56:02;;;;;;;3.33;1.60;;;18.10;49.50;;;;;;5064955;28;20100;-57
2022/06/17 01:58:34;;;;;;;3.28;1.67;;;18.00;49.80;;;;;;5067038;28;20048;-60
2022/06/17 02:01:01;;;;;;;2.28;1.90;;;18.00;49.20;;;;;;5063001;28;20525;-60
2022/06/17 02:03:33;;;;;;;3.45;1.52;;;18.00;49.40;;;;;;5065636;28;20467;-60
2022/06/17 02:06:10;;;;;;;2.38;1.80;;;17.90;49.90;;;;;;5061723;28;20029;-60
2022/06/17 02:08:36;;;;;;;3.15;1.90;;;17.90;50.40;;;;;;5066905;28;20037;-60
2022/06/17 02:11:03;;;;;;;2.25;1.85;;;17.80;49.80;;;;;;5063009;28;20040;-59
2022/06/17 02:13:31;;;;;;;3.22;1.80;;;17.80;50.10;;;;;;5062456;28;20131;-60
2022/06/17 02:16:03;;;;;;;8.93;2.08;;;17.80;50.30;;;;;;5060312;28;20081;-60
2022/06/17 02:18:29;;;;;;;2.63;1.75;;;17.70;50.60;;;;;;5069448;28;20024;-60
2022/06/17 02:20:59;;;;;;;2.33;2.10;;;17.70;50.30;;;;;;5064667;28;20543;-58
2022/06/17 02:23:27;;;;;;;7.50;2.28;;;17.60;50.50;;;;;;5066273;28;20044;-58
2022/06/17 02:25:55;;;;;;;4.40;2.00;;;17.60;50.70;;;;;;5063130;28;20036;-60
2022/06/17 02:28:24;;;;;;;3.05;1.80;;;17.50;50.70;;;;;;5064400;28;20398;-60
2022/06/17 02:30:50;;;;;;;2.97;1.90;;;17.50;50.70;;;;;;5070373;28;20052;-60
2022/06/17 02:33:18;;;;;;;2.50;1.60;;;17.50;51.10;;;;;;5063940;28;20040;-60
2022/06/17 02:36:11;;;;;;;2.75;1.90;;;17.40;51.20;;;;;;5055159;28;20111;-60
2022/06/17 02:38:38;;;;;;;7.40;1.77;;;17.40;51.80;;;;;;5053294;28;20080;-61
2022/06/17 02:41:16;;;;;;;8.27;2.10;;;17.40;51.20;;;;;;5057212;28;20092;-60
2022/06/17 02:43:49;;;;;;;2.70;1.77;;;17.40;51.40;;;;;;5045475;28;20057;-59
2022/06/17 02:46:36;;;;;;;5.00;2.22;;;17.30;52.10;;;;;;5047851;28;20030;-60
2022/06/17 02:49:05;;;;;;;2.60;1.77;;;17.30;51.90;;;;;;5042987;28;20096;-59
2022/06/17 02:51:36;;;;;;;7.88;1.95;;;17.30;51.60;;;;;;5058437;28;20033;-61
2022/06/17 02:54:04;;;;;;;2.47;1.83;;;17.30;51.80;;;;;;5046072;28;20037;-60
2022/06/17 02:56:33;;;;;;;2.80;1.88;;;17.30;51.60;;;;;;5044268;28;20399;-60
2022/06/17 02:59:20;;;;;;;5.93;1.98;;;17.20;51.90;;;;;;5048932;28;20048;-59
2022/06/17 03:01:48;;;;;;;3.42;2.33;;;17.20;52.70;;;;;;5040216;28;20024;-59
2022/06/17 03:04:24;;;;;;;3.97;2.00;;;17.20;52.20;;;;;;5040125;28;20025;-60
2022/06/17 03:06:50;;;;;;;2.75;1.95;;;17.20;52.90;;;;;;5044372;28;20030;-59
2022/06/17 03:09:24;;;;;;;2.60;1.75;;;17.10;52.30;;;;;;5045523;28;20044;-59
2022/06/17 03:11:56;;;;;;;5.22;2.20;;;17.10;52.60;;;;;;5042577;28;20042;-59
2022/06/17 03:14:25;;;;;;;3.20;1.92;;;17.10;52.60;;;;;;5025242;28;20116;-60
2022/06/17 03:16:54;;;;;;;3.60;1.90;;;17.10;52.40;;;;;;5041095;28;20030;-60
2022/06/17 03:19:22;;;;;;;5.20;1.85;;;17.00;52.50;;;;;;5043495;28;20025;-61
2022/06/17 03:21:48;;;;;;;5.15;2.05;;;17.00;52.50;;;;;;5043473;28;20404;-59
2022/06/17 03:24:30;;;;;;;3.40;1.80;;;17.00;52.60;;;;;;5042664;28;20033;-60
2022/06/17 03:27:07;;;;;;;3.90;1.88;;;17.00;53.10;;;;;;5040588;28;20025;-59
2022/06/17 03:29:35;;;;;;;5.55;2.00;;;17.00;52.90;;;;;;5045629;28;20022;-58
2022/06/17 03:32:05;;;;;;;5.50;1.83;;;16.90;52.40;;;;;;5040225;28;20059;-59
2022/06/17 03:34:43;;;;;;;4.43;1.70;;;16.90;52.80;;;;;;5041617;28;20034;-60
2022/06/17 03:37:22;;;;;;;8.88;1.88;;;16.90;53.00;;;;;;5041730;28;20048;-59
2022/06/17 03:39:54;;;;;;;4.55;1.95;;;16.90;53.20;;;;;;5041160;28;20406;-61
2022/06/17 03:42:38;;;;;;;4.35;2.00;;;16.80;53.10;;;;;;5035252;28;20048;-60
2022/06/17 03:45:16;;;;;;;3.80;1.90;;;16.80;53.90;;;;;;5042042;28;20060;-59
2022/06/17 03:47:55;;;;;;;2.83;1.88;;;16.80;53.50;;;;;;5044726;28;20033;-60
2022/06/17 03:50:29;;;;;;;3.13;1.77;;;16.80;53.30;;;;;;5060167;28;20034;-60
2022/06/17 03:53:25;;;;;;;1.95;1.40;;;16.80;52.80;;;;;;5057307;28;20119;-60
2022/06/17 03:55:53;;;;;;;3.33;1.70;;;16.80;53.20;;;;;;5050756;28;20068;-59
2022/06/17 03:58:20;;;;;;;5.03;2.08;;;16.80;52.70;;;;;;5071237;28;20120;-59
2022/06/17 04:01:01;;;;;;;2.58;1.80;;;16.70;53.10;;;;;;5064449;28;20043;-60
2022/06/17 04:03:33;;;;;;;7.35;2.10;;;16.70;54.20;;;;;;5057284;28;20037;-60
2022/06/17 04:06:08;;;;;;;5.05;2.33;;;16.80;53.90;;;;;;5042957;28;20044;-59
2022/06/17 04:08:35;;;;;;;3.30;1.95;;;16.70;53.90;;;;;;5062479;28;20036;-61
2022/06/17 04:11:02;;;;;;;2.20;1.80;;;16.80;53.80;;;;;;5056729;28;20024;-61
2022/06/17 04:13:31;;;;;;;5.25;2.00;;;16.80;53.90;;;;;;5055390;28;20064;-59
2022/06/17 04:16:22;;;;;;;6.60;2.13;;;16.80;54.00;;;;;;5067621;28;20023;-60
2022/06/17 04:18:48;;;;;;;4.10;1.65;;;16.90;55.00;;;;;;5056339;28;20037;-60
2022/06/17 04:21:13;;;;;;;2.45;1.83;;;16.90;53.90;;;;;;5054333;28;20044;-59
2022/06/17 04:23:40;;;;;;;5.18;2.03;;;17.00;54.10;;;;;;5044022;28;20120;-60
2022/06/17 04:26:12;;;;;;;3.33;2.00;;;17.10;54.10;;;;;;5055960;28;20052;-60
2022/06/17 04:28:44;;;;;;;4.45;2.00;;;17.20;53.90;;;;;;4985500;28;20092;-59
2022/06/17 04:31:17;;;;;;;2.58;1.80;;;17.20;53.90;;;;;;5068238;28;20017;-60
2022/06/17 04:33:50;;;;;;;4.03;1.92;;;17.30;54.10;;;;;;5072517;28;20044;-60
2022/06/17 04:36:22;;;;;;;4.55;1.80;;;17.40;54.20;;;;;;5065019;28;20025;-60
2022/06/17 04:38:53;;;;;;;5.85;1.90;;;17.50;54.00;;;;;;5074788;28;20021;-58
2022/06/17 04:41:24;;;;;;;2.03;1.60;;;17.60;53.60;;;;;;5069307;28;20048;-59
2022/06/17 04:43:54;;;;;;;4.85;2.30;;;17.70;53.60;;;;;;5063010;28;20046;-59
2022/06/17 04:46:34;;;;;;;2.00;1.80;;;17.80;53.50;;;;;;5055483;28;20029;-60
2022/06/17 04:49:01;;;;;;;2.45;1.90;;;17.90;54.20;;;;;;5066484;28;20028;-61
2022/06/17 04:51:29;;;;;;;3.97;2.03;;;18.00;53.60;;;;;;5065441;28;20044;-60
2022/06/17 04:53:56;;;;;;;12.80;1.98;;;18.10;53.60;;;;;;5067274;28;20059;-60
2022/06/17 04:56:29;;;;;;;4.05;2.00;;;18.20;53.30;;;;;;5071972;28;20108;-60
2022/06/17 04:58:56;;;;;;;5.13;2.10;;;18.20;53.40;;;;;;5070980;28;20163;-61
2022/06/17 05:01:24;;;;;;;2.78;1.80;;;18.30;52.90;;;;;;5043285;28;20036;-59
2022/06/17 05:03:51;;;;;;;3.42;2.17;;;18.40;52.80;;;;;;5066306;28;20504;-60
2022/06/17 05:06:17;;;;;;;5.72;2.25;;;18.50;52.80;;;;;;5059326;28;20371;-59
2022/06/17 05:08:48;;;;;;;3.80;2.20;;;18.50;52.80;;;;;;5077519;28;20043;-60
2022/06/17 05:11:15;;;;;;;5.70;1.85;;;18.60;53.00;;;;;;5069444;28;20059;-60
2022/06/17 05:13:54;;;;;;;4.65;2.20;;;18.60;52.70;;;;;;5070637;28;20025;-59
2022/06/17 05:16:20;;;;;;;4.82;2.25;;;18.70;53.00;;;;;;5066441;28;20026;-59
2022/06/17 05:18:45;;;;;;;4.55;2.40;;;18.70;52.50;;;;;;5051548;28;20060;-58
2022/06/17 05:21:18;;;;;;;4.25;2.22;;;18.80;52.60;;;;;;5075595;28;20029;-60
2022/06/17 05:23:43;;;;;;;3.30;2.05;;;18.90;52.70;;;;;;5057569;28;20045;-61
2022/06/17 05:26:10;;;;;;;4.32;1.98;;;18.90;52.30;;;;;;5068451;28;20024;-60
2022/06/17 05:28:35;;;;;;;6.13;2.30;;;19.00;52.30;;;;;;5068307;28;20059;-59
2022/06/17 05:31:01;;;;;;;3.47;2.15;;;19.10;52.10;;;;;;5051139;28;20112;-59
2022/06/17 05:33:28;;;;;;;5.45;2.33;;;19.20;51.90;;;;;;5056601;28;20036;-59
2022/06/17 05:35:54;;;;;;;4.43;2.10;;;19.30;51.80;;;;;;5069012;28;20020;-59
2022/06/17 05:38:20;;;;;;;12.43;2.30;;;19.40;51.90;;;;;;5054095;28;20111;-60
2022/06/17 05:40:46;;;;;;;10.07;2.28;;;19.40;51.80;;;;;;5058795;28;20029;-60
2022/06/17 05:43:12;;;;;;;5.38;2.15;;;19.50;51.70;;;;;;5059548;28;21046;-60
2022/06/17 05:45:39;;;;;;;6.45;1.77;;;19.60;51.70;;;;;;5065909;28;20048;-60
2022/06/17 05:48:05;;;;;;;3.50;1.73;;;19.70;51.60;;;;;;5064485;28;20039;-59
2022/06/17 05:50:32;;;;;;;4.38;1.50;;;19.90;51.40;;;;;;5063520;28;20387;-60
2022/06/17 05:53:01;;;;;;;3.65;1.80;;;20.00;51.10;;;;;;5064655;28;20059;-58
2022/06/17 05:55:29;;;;;;;3.63;1.63;;;20.20;50.80;;;;;;5065378;28;20021;-58
2022/06/17 05:57:57;;;;;;;6.57;1.85;;;20.30;50.60;;;;;;5065543;28;20326;-59
2022/06/17 06:00:23;;;;;;;4.00;1.80;;;20.50;50.50;;;;;;5061406;28;20033;-61
2022/06/17 06:02:50;;;;;;;5.90;1.85;;;20.60;50.30;;;;;;5064842;28;20080;-60
2022/06/17 06:05:20;;;;;;;2.60;1.60;;;20.80;50.00;;;;;;5063614;28;20025;-59
2022/06/17 06:07:47;;;;;;;4.50;1.50;;;20.90;49.30;;;;;;5064924;28;20212;-59
2022/06/17 06:10:14;;;;;;;3.92;1.75;;;21.00;49.00;;;;;;5044803;28;20025;-59
2022/06/17 06:15:29;;;;;;;3.92;1.60;;;21.20;48.50;;;;;;5063968;28;20036;-58
2022/06/17 06:17:55;;;;;;;3.95;1.50;;;21.30;48.40;;;;;;5066648;28;20029;-60
2022/06/17 06:20:21;;;;;;;5.15;1.75;;;21.40;48.20;;;;;;5050104;28;20047;-60
2022/06/17 06:22:47;;;;;;;3.63;1.58;;;21.50;48.30;;;;;;5064460;28;20055;-60
2022/06/17 06:25:15;;;;;;;4.10;1.73;;;21.60;48.10;;;;;;5036055;28;20097;-59
2022/06/17 06:27:41;;;;;;;6.18;1.65;;;21.70;48.00;;;;;;5063650;28;20025;-60
2022/06/17 06:30:15;;;;;;;2.47;1.40;;;21.80;47.80;;;;;;5064001;28;20032;-60
2022/06/17 06:32:50;;;;;;;3.17;1.40;;;21.90;47.70;;;;;;5060762;28;20112;-59
2022/06/17 06:35:16;;;;;;;4.70;1.35;;;22.00;47.50;;;;;;5062563;28;20033;-59
2022/06/17 06:37:42;;;;;;;3.70;1.50;;;22.10;47.40;;;;;;5062940;28;20055;-59
2022/06/17 06:40:09;;;;;;;11.38;1.70;;;22.30;47.50;;;;;;5065404;28;20037;-60
2022/06/17 06:42:35;;;;;;;3.13;1.52;;;22.50;47.10;;;;;;5040505;28;20076;-59
2022/06/17 06:45:01;;;;;;;6.93;1.50;;;22.60;46.80;;;;;;5044455;28;20025;-60
2022/06/17 06:47:26;;;;;;;4.35;1.88;;;22.70;46.60;;;;;;5047433;28;20025;-59
2022/06/17 06:49:52;;;;;;;3.67;1.60;;;22.90;46.70;;;;;;5050310;28;20106;-59
2022/06/17 06:52:18;;;;;;;6.97;1.70;;;23.00;46.40;;;;;;5054916;28;20049;-59
2022/06/17 06:54:43;;;;;;;4.85;1.77;;;23.20;45.80;;;;;;5045749;28;20059;-59
2022/06/17 06:57:10;;;;;;;3.10;1.90;;;23.30;45.10;;;;;;5027541;28;20134;-59
2022/06/17 06:59:36;;;;;;;9.35;1.80;;;23.50;45.20;;;;;;5044988;28;20112;-59
2022/06/17 07:02:02;;;;;;;3.28;1.63;;;23.60;45.00;;;;;;5041242;28;20051;-58
2022/06/17 07:04:28;;;;;;;3.65;1.70;;;23.70;45.20;;;;;;5047188;28;20084;-62
2022/06/17 07:06:53;;;;;;;3.58;1.70;;;23.80;45.40;;;;;;5012443;28;20121;-58
2022/06/17 07:09:21;;;;;;;4.32;1.45;;;24.00;45.10;;;;;;5024024;28;20034;-60
2022/06/17 07:11:46;;;;;;;3.05;1.42;;;24.10;44.70;;;;;;5037133;28;20025;-60
2022/06/17 07:14:12;;;;;;;4.28;1.73;;;24.20;44.60;;;;;;5044541;28;20029;-60
2022/06/17 07:16:38;;;;;;;6.20;1.50;;;24.30;44.40;;;;;;5044573;28;20032;-59
2022/06/17 07:19:07;;;;;;;4.45;1.77;;;24.50;44.30;;;;;;5049253;28;20046;-61
2022/06/17 07:21:33;;;;;;;6.20;1.70;;;24.60;43.60;;;;;;5048055;28;20049;-59
2022/06/17 07:23:59;;;;;;;4.55;1.67;;;24.70;43.30;;;;;;5048550;28;20026;-59
2022/06/17 07:26:25;;;;;;;9.25;1.73;;;24.80;42.90;;;;;;5050186;28;20056;-59
2022/06/17 07:28:53;;;;;;;8.52;1.73;;;24.90;43.10;;;;;;5045610;28;20495;-60
2022/06/17 07:31:19;;;;;;;3.35;1.83;;;25.00;42.70;;;;;;5053478;28;20033;-60
2022/06/17 07:33:45;;;;;;;2.22;1.38;;;25.20;42.30;;;;;;5025443;28;20033;-60
2022/06/17 07:41:43;;;;;;;2.90;1.40;;;25.60;41.40;;;;;;5039998;28;20093;-59
2022/06/17 07:44:09;;;;;;;4.95;1.50;;;25.70;41.20;;;;;;5063208;28;20413;-61
2022/06/17 07:46:35;;;;;;;4.70;1.17;;;25.80;40.70;;;;;;5066982;28;20025;-61
2022/06/17 07:49:01;;;;;;;4.07;1.73;;;25.80;40.40;;;;;;5063833;28;20033;-60
2022/06/17 07:51:27;;;;;;;3.40;1.67;;;25.90;40.50;;;;;;5063884;28;20067;-60
2022/06/17 07:53:53;;;;;;;3.08;1.42;;;26.00;40.40;;;;;;5062374;28;20033;-61
2022/06/17 07:56:20;;;;;;;2.30;1.15;;;26.10;40.20;;;;;;5063859;28;20105;-60
2022/06/17 07:58:46;;;;;;;6.00;1.90;;;26.30;39.90;;;;;;5060043;28;20029;-61
2022/06/17 08:01:13;;;;;;;3.13;1.33;;;26.30;39.80;;;;;;5063192;28;20044;-60
2022/06/17 08:03:39;;;;;;;3.90;1.42;;;26.40;40.10;;;;;;5060906;28;20580;-60
2022/06/17 08:06:05;;;;;;;1.25;1.00;;;26.60;39.30;;;;;;5063027;28;20075;-60
2022/06/17 08:08:32;;;;;;;2.38;1.23;;;26.70;39.20;;;;;;5060966;28;20112;-60
2022/06/17 08:11:00;;;;;;;7.30;1.88;;;26.80;39.60;;;;;;5064596;28;20060;-60
2022/06/17 08:13:26;;;;;;;5.07;1.55;;;27.00;39.20;;;;;;5066659;28;20041;-59
2022/06/17 08:15:55;;;;;;;5.15;1.42;;;27.00;38.30;;;;;;5062566;28;20036;-60
2022/06/17 08:18:21;;;;;;;6.80;2.13;;;27.00;38.90;;;;;;5062041;28;20112;-61
2022/06/17 08:20:48;;;;;;;8.75;1.65;;;27.10;38.80;;;;;;5064838;28;20052;-59
2022/06/17 08:23:14;;;;;;;6.38;2.30;;;27.20;38.30;;;;;;5062889;28;20442;-59
2022/06/17 08:25:41;;;;;;;2.45;1.20;;;27.20;38.00;;;;;;5064099;28;20022;-60
2022/06/17 08:28:10;;;;;;;2.60;1.30;;;27.30;37.70;;;;;;5060355;28;20040;-60
2022/06/17 08:30:41;;;;;;;5.25;1.45;;;27.30;37.70;;;;;;5058071;28;20029;-62
2022/06/17 08:33:07;;;;;;;2.60;1.48;;;27.40;38.30;;;;;;5058754;28;20047;-61
2022/06/17 08:35:39;;;;;;;2.85;1.50;;;27.40;37.90;;;;;;5060882;28;20021;-59
2022/06/17 08:38:13;;;;;;;3.17;1.33;;;27.50;37.90;;;;;;5061777;28;20064;-60
2022/06/17 08:41:17;;;;;;;3.47;1.27;;;27.60;37.50;;;;;;5061888;28;20049;-61
2022/06/17 08:44:06;;;;;;;2.53;1.10;;;27.70;36.80;;;;;;4975734;28;20090;-60
2022/06/17 08:47:00;;;;;;;1.85;1.27;;;27.80;35.90;;;;;;4979095;28;20054;-60
2022/06/17 08:49:56;;;;;;;11.93;1.23;;;28.00;35.00;;;;;;4965884;28;20089;-61
2022/06/17 08:52:56;;;;;;;5.20;1.20;;;28.10;35.00;;;;;;4960212;28;20070;-61
2022/06/17 08:55:45;;;;;;;9.00;1.42;;;28.10;35.40;;;;;;4961546;29;20032;-61
2022/06/17 08:58:41;;;;;;;5.00;1.60;;;28.20;36.40;;;;;;4960525;28;20043;-61
2022/06/17 09:01:42;;;;;;;1.83;0.90;;;28.30;36.20;;;;;;4950191;29;20409;-60
2022/06/17 09:04:16;;;;;;;2.45;1.00;;;28.30;35.50;;;;;;4945119;29;20036;-61
2022/06/17 09:06:50;;;;;;;3.35;1.25;;;28.40;35.00;;;;;;4961540;28;20051;-61
2022/06/17 09:09:37;;;;;;;6.88;1.27;;;28.40;34.90;;;;;;4964500;29;20027;-61
2022/06/17 09:12:13;;;;;;;5.15;1.25;;;28.50;35.00;;;;;;4962254;28;20124;-59
2022/06/17 09:14:57;;;;;;;3.78;1.25;;;28.60;34.80;;;;;;4962090;29;20047;-61
2022/06/17 09:17:27;;;;;;;1.35;0.90;;;28.60;34.00;;;;;;4962281;28;20051;-61
2022/06/17 09:19:58;;;;;;;3.88;1.50;;;28.70;34.90;;;;;;5025803;28;20037;-61
2022/06/17 09:22:32;;;;;;;1.30;0.85;;;28.70;34.40;;;;;;5040667;28;20511;-61
2022/06/17 09:25:07;;;;;;;1.50;0.98;;;28.80;33.90;;;;;;5028057;28;20029;-60
2022/06/17 09:27:37;;;;;;;1.58;0.88;;;28.90;34.50;;;;;;5045306;28;20049;-61
2022/06/17 09:30:17;;;;;;;1.80;1.08;;;29.00;34.50;;;;;;5042595;28;20042;-60
2022/06/17 09:32:52;;;;;;;2.63;1.05;;;29.00;33.80;;;;;;5047449;28;20116;-61
2022/06/17 09:35:36;;;;;;;1.80;0.85;;;29.10;33.70;;;;;;5045376;28;20026;-61
2022/06/17 09:38:20;;;;;;;2.35;1.00;;;29.20;33.30;;;;;;5038916;28;20033;-61
2022/06/17 09:41:18;;;;;;;5.28;1.27;;;29.30;33.30;;;;;;5047221;28;20034;-60
2022/06/17 09:44:05;;;;;;;1.98;1.20;;;29.40;34.00;;;;;;5042574;28;20041;-62
2022/06/17 09:47:00;;;;;;;2.75;0.90;;;29.40;33.20;;;;;;5065708;28;20029;-60
2022/06/17 09:49:35;;;;;;;3.03;2.17;;;29.40;33.60;;;;;;5051205;28;20044;-61
2022/06/17 09:52:27;;;;;;;3.20;2.00;;;29.50;33.10;;;;;;5036937;28;20044;-62
2022/06/17 09:54:58;;;;;;;5.20;1.35;;;29.60;33.30;;;;;;5061329;28;20036;-61
2022/06/17 09:58:02;;;;;;;5.05;0.90;;;29.70;33.20;;;;;;5082990;28;20036;-60
2022/06/17 10:00:38;;;;;;;2.08;1.00;;;29.80;33.20;;;;;;5018821;28;20038;-60
2022/06/17 10:03:27;;;;;;;1.55;0.75;;;29.80;32.30;;;;;;5008006;28;20042;-60
2022/06/17 10:06:11;;;;;;;2.03;0.88;;;29.90;31.80;;;;;;5024245;28;20062;-61
2022/06/17 10:09:01;;;;;;;4.00;1.08;;;30.00;32.60;;;;;;5024296;28;20042;-61
2022/06/17 10:11:55;;;;;;;3.72;1.20;;;30.00;32.20;;;;;;5025511;28;20038;-60
2022/06/17 10:14:26;;;;;;;3.25;0.90;;;30.10;32.00;;;;;;5022991;28;20030;-60
2022/06/17 10:20:19;;;;;;;1.73;1.30;;;30.10;30.20;;;;;;5024567;28;20080;-61
2022/06/17 10:23:13;;;;;;;2.92;1.20;;;30.10;31.80;;;;;;5005906;28;20080;-62
2022/06/17 10:25:39;;;;;;;2.03;1.05;;;30.20;30.50;;;;;;4981135;28;20045;-61
2022/06/17 10:28:25;;;;;;;7.00;0.93;;;30.20;31.00;;;;;;5004390;28;20034;-61
2022/06/17 10:31:17;;;;;;;2.13;0.80;;;30.20;31.00;;;;;;4988985;28;20118;-61
2022/06/17 10:33:43;;;;;;;2.55;0.80;;;30.30;31.90;;;;;;5004214;28;20102;-62
2022/06/17 10:36:09;;;;;;;1.67;0.80;;;30.30;30.80;;;;;;5001312;28;20042;-60
2022/06/17 10:38:45;;;;;;;2.72;0.90;;;30.40;30.30;;;;;;5003389;28;20038;-60
2022/06/17 10:41:12;;;;;;;4.63;0.77;;;30.40;30.10;;;;;;5005210;28;20057;-62
2022/06/17 10:43:43;;;;;;;0.80;0.77;;;30.40;30.00;;;;;;5003815;28;20030;-61
2022/06/17 10:46:18;;;;;;;1.67;0.70;;;30.50;30.10;;;;;;5002254;28;20026;-61
2022/06/17 10:49:07;;;;;;;1.05;0.52;;;30.50;30.20;;;;;;5006587;28;20058;-61
2022/06/17 10:51:35;;;;;;;1.08;0.93;;;30.60;29.60;;;;;;5004382;28;20046;-60
2022/06/17 10:54:05;;;;;;;4.65;0.80;;;30.70;29.20;;;;;;5003435;28;20153;-61
2022/06/17 10:56:40;;;;;;;2.35;0.80;;;30.80;29.00;;;;;;5017246;28;20087;-60
2022/06/17 10:59:10;;;;;;;2.13;0.73;;;30.80;28.60;;;;;;5054921;28;20051;-60
2022/06/17 11:01:45;;;;;;;2.45;0.60;;;30.90;28.70;;;;;;5046654;28;20049;-62
2022/06/17 11:04:16;;;;;;;1.10;0.68;;;31.00;27.70;;;;;;5046479;28;20025;-60
2022/06/17 11:06:55;;;;;;;1.23;0.80;;;31.00;28.70;;;;;;5057440;28;20025;-61
2022/06/17 11:09:34;;;;;;;1.60;0.75;;;31.00;28.40;;;;;;5056729;28;20037;-61
2022/06/17 11:12:06;;;;;;;1.40;0.70;;;31.10;28.10;;;;;;5048420;28;20039;-60
2022/06/17 11:14:44;;;;;;;1.65;0.70;;;31.10;28.90;;;;;;5055111;28;20033;-60
2022/06/17 11:17:30;;;;;;;2.67;0.50;;;31.20;28.50;;;;;;5061333;28;20861;-60
2022/06/17 11:20:00;;;;;;;1.92;0.85;;;31.30;28.00;;;;;;5067430;28;20052;-60
2022/06/17 11:22:32;;;;;;;1.52;0.80;;;31.30;28.20;;;;;;5063109;28;20029;-61
2022/06/17 11:25:03;;;;;;;1.48;0.60;;;31.30;28.10;;;;;;5052747;28;20035;-62
2022/06/17 11:27:38;;;;;;;3.45;0.70;;;31.40;28.50;;;;;;5041220;28;20075;-61
2022/06/17 11:30:21;;;;;;;0.60;0.50;;;31.50;28.80;;;;;;5048181;28;20056;-61
2022/06/17 11:32:48;;;;;;;4.40;0.57;;;31.60;28.10;;;;;;5056260;28;20072;-61
2022/06/17 11:35:23;;;;;;;2.00;0.65;;;31.70;28.30;;;;;;5063644;28;20128;-61
2022/06/17 11:37:50;;;;;;;2.72;0.70;;;31.80;28.30;;;;;;5064029;28;20056;-61
2022/06/17 11:40:18;;;;;;;1.92;0.50;;;31.90;28.00;;;;;;5069383;28;20021;-61
2022/06/17 11:42:57;;;;;;;1.25;0.60;;;32.00;27.50;;;;;;5046117;28;20067;-60
2022/06/17 11:45:24;;;;;;;1.08;0.70;;;32.00;27.40;;;;;;5052580;28;20053;-61
2022/06/17 11:47:55;;;;;;;1.10;0.60;;;32.10;27.80;;;;;;5056488;28;20027;-61
2022/06/17 11:50:30;;;;;;;1.15;0.60;;;32.10;27.10;;;;;;5054017;28;20021;-60
2022/06/17 11:53:16;;;;;;;0.55;0.50;;;32.20;26.50;;;;;;5056332;28;20036;-60
2022/06/17 11:55:48;;;;;;;0.77;0.40;;;32.30;26.60;;;;;;5046382;28;20047;-61
2022/06/17 11:58:17;;;;;;;3.03;0.70;;;32.40;26.30;;;;;;5063439;28;20229;-61
2022/06/17 12:00:51;;;;;;;1.25;0.60;;;32.40;26.30;;;;;;5057200;28;20029;-62
2022/06/17 12:03:21;;;;;;;2.58;0.60;;;32.50;26.10;;;;;;5064737;28;20021;-61
2022/06/17 12:06:02;;;;;;;1.77;0.60;;;32.50;25.60;;;;;;5049646;28;20107;-60
2022/06/17 12:08:40;;;;;;;1.25;0.60;;;32.60;24.10;;;;;;5045040;28;20048;-61
2022/06/17 12:11:12;;;;;;;1.13;0.50;;;32.60;26.50;;;;;;5053312;28;20089;-62
2022/06/17 12:13:49;;;;;;;0.88;0.60;;;32.60;26.40;;;;;;5055515;28;20037;-62
2022/06/17 12:16:23;;;;;;;3.00;0.50;;;32.60;25.90;;;;;;5062080;28;20117;-61
2022/06/17 12:18:56;;;;;;;0.40;0.40;;;32.70;25.30;;;;;;5049413;28;20025;-62
2022/06/17 12:21:46;;;;;;;2.17;0.47;;;32.80;24.80;;;;;;5056029;28;20111;-61
2022/06/17 12:24:18;;;;;;;0.85;0.47;;;32.80;24.90;;;;;;5052607;28;20025;-61
2022/06/17 12:27:05;;;;;;;3.80;0.60;;;32.70;24.60;;;;;;5056815;28;20031;-61
2022/06/17 12:29:44;;;;;;;1.15;0.43;;;32.60;23.80;;;;;;5055559;28;20400;-61
2022/06/17 12:32:21;;;;;;;3.60;0.80;;;32.50;24.00;;;;;;5060233;28;20051;-61
2022/06/17 12:34:52;;;;;;;1.88;0.73;;;32.40;24.30;;;;;;5056074;28;20045;-61
2022/06/17 12:37:47;;;;;;;2.08;0.80;;;32.30;24.80;;;;;;5063217;28;20021;-60
2022/06/17 12:40:32;;;;;;;1.00;0.40;;;32.30;25.40;;;;;;5061645;28;20089;-61
2022/06/17 12:43:02;;;;;;;0.60;0.60;;;32.40;24.10;;;;;;5053962;28;20080;-61
2022/06/17 12:45:53;;;;;;;6.82;0.60;;;32.40;24.20;;;;;;5061861;28;20445;-60
2022/06/17 12:48:43;;;;;;;2.70;0.50;;;32.40;24.20;;;;;;5061167;28;20047;-60
2022/06/17 12:54:34;;;;;;;0.43;0.40;;;32.50;24.20;;;;;;5054778;28;20047;-62
2022/06/17 12:57:16;;;;;;;1.48;0.70;;;32.70;25.10;;;;;;5057158;28;20055;-62
2022/06/17 12:59:51;;;;;;;2.35;0.50;;;32.80;24.90;;;;;;5056338;28;20065;-60
2022/06/17 13:02:43;;;;;;;0.60;0.50;;;32.90;24.40;;;;;;5065098;28;20033;-61
2022/06/17 13:05:41;;;;;;;0.65;0.47;;;33.00;24.40;;;;;;5022073;28;20034;-60
2022/06/17 13:08:12;;;;;;;0.82;0.50;;;33.10;23.70;;;;;;5032405;28;20140;-62
2022/06/17 13:10:51;;;;;;;0.45;0.40;;;33.30;23.40;;;;;;5028060;28;20042;-61
2022/06/17 13:13:40;;;;;;;0.45;0.45;;;33.30;24.00;;;;;;5012086;28;20041;-60
2022/06/17 13:16:25;;;;;;;2.83;0.68;;;33.40;23.40;;;;;;5020995;28;20041;-61
2022/06/17 13:18:57;;;;;;;0.80;0.57;;;33.40;23.00;;;;;;5030191;28;20049;-61
2022/06/17 13:21:45;;;;;;;0.30;0.30;;;33.30;22.30;;;;;;5006815;28;20406;-61
2022/06/17 13:24:45;;;;;;;2.10;0.50;;;33.20;22.90;;;;;;5012645;28;20053;-62
2022/06/17 13:27:24;;;;;;;1.98;0.98;;;33.10;23.60;;;;;;5019348;28;20034;-59
2022/06/17 13:29:58;;;;;;;0.60;0.57;;;33.10;22.60;;;;;;5006802;28;20046;-61
2022/06/17 13:32:28;;;;;;;1.38;0.60;;;33.00;24.20;;;;;;5035926;28;20033;-61
2022/06/17 13:35:23;;;;;;;2.58;0.70;;;33.00;23.80;;;;;;5026384;28;20050;-61